sensor_id;sensor_type;location;lat;lon;timestamp;temperature;humidity
50556;DHT22;36508;52.512;13.450;2023-11-21T00:04:16;8.70;99.90
50556;DHT22;36508;52.512;13.450;2023-11-21T00:06:42;8.50;99.90
50556;DHT22;36508;52.512;13.450;2023-11-21T00:09:07;8.60;99.90
50556;DHT22;36508;52.512;13.450;2023-11-21T00:11:34;8.60;99.90
50556;DHT22;36508;52.512;13.450;2023-11-21T00:13:59;8.50;99.90
50556;DHT22;36508;52.512;13.450;2023-11-21T00:16:25;8.60;99.90
50556;DHT22;36508;52.512;13.450;2023-11-21T00:18:51;8.50;99.90
50556;DHT22;36508;52.512;13.450;2023-11-21T00:21:16;8.50;99.90
50556;DHT22;36508;52.512;13.450;2023-11-21T00:23:42;8.50;99.90
50556;DHT22;36508;52.512;13.450;2023-11-21T00:26:08;8.40;99.90
50556;DHT22;36508;52.512;13.450;2023-11-21T00:28:34;8.40;99.90
50556;DHT22;36508;52.512;13.450;2023-11-21T00:30:59;8.30;99.90
50556;DHT22;36508;52.512;13.450;2023-11-21T00:33:25;8.30;99.90
50556;DHT22;36508;52.512;13.450;2023-11-21T00:35:51;8.20;99.90
50556;DHT22;36508;52.512;13.450;2023-11-21T00:38:16;8.10;99.90
50556;DHT22;36508;52.512;13.450;2023-11-21T00:40:45;8.10;99.90
50556;DHT22;36508;52.512;13.450;2023-11-21T00:43:11;8.10;99.90
50556;DHT22;36508;52.512;13.450;2023-11-21T00:45:36;8.10;99.90
50556;DHT22;36508;52.512;13.450;2023-11-21T00:48:03;8.00;99.90
50556;DHT22;36508;52.512;13.450;2023-11-21T00:50:30;8.00;99.90
50556;DHT22;36508;52.512;13.450;2023-11-21T00:52:56;7.90;99.90
50556;DHT22;36508;52.512;13.450;2023-11-21T00:55:22;7.90;99.90
50556;DHT22;36508;52.512;13.450;2023-11-21T00:57:47;7.90;99.90
50556;DHT22;36508;52.512;13.450;2023-11-21T01:00:13;7.90;99.90
50556;DHT22;36508;52.512;13.450;2023-11-21T01:02:41;7.90;99.90
50556;DHT22;36508;52.512;13.450;2023-11-21T01:05:07;8.00;99.90
50556;DHT22;36508;52.512;13.450;2023-11-21T01:07:33;8.00;99.90
50556;DHT22;36508;52.512;13.450;2023-11-21T01:09:59;7.90;99.90
50556;DHT22;36508;52.512;13.450;2023-11-21T01:12:24;7.80;99.90
50556;DHT22;36508;52.512;13.450;2023-11-21T01:14:50;7.80;99.90
50556;DHT22;36508;52.512;13.450;2023-11-21T01:17:16;7.80;99.90
50556;DHT22;36508;52.512;13.450;2023-11-21T01:19:43;7.70;99.90
50556;DHT22;36508;52.512;13.450;2023-11-21T01:22:09;7.80;99.90
50556;DHT22;36508;52.512;13.450;2023-11-21T01:24:37;7.80;99.90
50556;DHT22;36508;52.512;13.450;2023-11-21T01:27:03;7.80;99.90
50556;DHT22;36508;52.512;13.450;2023-11-21T01:29:30;7.80;99.90
50556;DHT22;36508;52.512;13.450;2023-11-21T01:31:56;7.80;99.90
50556;DHT22;36508;52.512;13.450;2023-11-21T01:34:22;7.80;99.90
50556;DHT22;36508;52.512;13.450;2023-11-21T01:36:49;7.70;99.90
50556;DHT22;36508;52.512;13.450;2023-11-21T01:39:15;7.70;99.90
50556;DHT22;36508;52.512;13.450;2023-11-21T01:41:42;7.60;99.90
50556;DHT22;36508;52.512;13.450;2023-11-21T01:44:09;7.50;99.90
50556;DHT22;36508;52.512;13.450;2023-11-21T01:46:35;7.50;99.90
50556;DHT22;36508;52.512;13.450;2023-11-21T01:49:01;7.50;99.90
50556;DHT22;36508;52.512;13.450;2023-11-21T01:51:27;7.50;99.90
50556;DHT22;36508;52.512;13.450;2023-11-21T01:53:52;7.60;99.90
50556;DHT22;36508;52.512;13.450;2023-11-21T01:56:18;7.50;99.90
50556;DHT22;36508;52.512;13.450;2023-11-21T01:58:44;7.40;99.90
50556;DHT22;36508;52.512;13.450;2023-11-21T02:01:12;7.50;99.90
50556;DHT22;36508;52.512;13.450;2023-11-21T02:03:37;7.50;99.90
50556;DHT22;36508;52.512;13.450;2023-11-21T02:06:04;7.40;99.90
50556;DHT22;36508;52.512;13.450;2023-11-21T02:08:30;7.30;99.90
50556;DHT22;36508;52.512;13.450;2023-11-21T02:10:56;7.40;99.90
50556;DHT22;36508;52.512;13.450;2023-11-21T02:13:23;7.40;99.90
50556;DHT22;36508;52.512;13.450;2023-11-21T02:15:48;7.40;99.90
50556;DHT22;36508;52.512;13.450;2023-11-21T02:18:17;7.40;99.90
50556;DHT22;36508;52.512;13.450;2023-11-21T02:20:43;7.40;99.90
50556;DHT22;36508;52.512;13.450;2023-11-21T02:23:09;7.40;99.90
50556;DHT22;36508;52.512;13.450;2023-11-21T02:25:34;7.30;99.90
50556;DHT22;36508;52.512;13.450;2023-11-21T02:28:03;7.20;99.90
50556;DHT22;36508;52.512;13.450;2023-11-21T02:30:29;7.20;99.90
50556;DHT22;36508;52.512;13.450;2023-11-21T02:32:57;7.40;99.90
50556;DHT22;36508;52.512;13.450;2023-11-21T02:35:24;7.30;99.90
50556;DHT22;36508;52.512;13.450;2023-11-21T02:37:51;7.30;99.90
50556;DHT22;36508;52.512;13.450;2023-11-21T02:40:17;7.40;99.90
50556;DHT22;36508;52.512;13.450;2023-11-21T02:42:50;7.40;99.90
50556;DHT22;36508;52.512;13.450;2023-11-21T02:45:19;7.30;99.90
50556;DHT22;36508;52.512;13.450;2023-11-21T02:47:46;7.40;99.90
50556;DHT22;36508;52.512;13.450;2023-11-21T02:50:12;7.40;99.90
50556;DHT22;36508;52.512;13.450;2023-11-21T02:52:38;7.30;99.90
50556;DHT22;36508;52.512;13.450;2023-11-21T02:55:06;7.30;99.90
50556;DHT22;36508;52.512;13.450;2023-11-21T02:57:32;7.30;99.90
50556;DHT22;36508;52.512;13.450;2023-11-21T02:59:59;7.30;99.90
50556;DHT22;36508;52.512;13.450;2023-11-21T03:02:25;7.40;99.90
50556;DHT22;36508;52.512;13.450;2023-11-21T03:04:51;7.30;99.90
50556;DHT22;36508;52.512;13.450;2023-11-21T03:07:17;7.30;99.90
50556;DHT22;36508;52.512;13.450;2023-11-21T03:09:45;7.30;99.90
50556;DHT22;36508;52.512;13.450;2023-11-21T03:12:13;7.30;99.90
50556;DHT22;36508;52.512;13.450;2023-11-21T03:14:39;7.30;99.90
50556;DHT22;36508;52.512;13.450;2023-11-21T03:17:05;7.20;99.90
50556;DHT22;36508;52.512;13.450;2023-11-21T03:19:32;7.30;99.90
50556;DHT22;36508;52.512;13.450;2023-11-21T03:21:57;7.20;99.90
50556;DHT22;36508;52.512;13.450;2023-11-21T03:24:23;7.30;99.90
50556;DHT22;36508;52.512;13.450;2023-11-21T03:26:49;7.20;99.90
50556;DHT22;36508;52.512;13.450;2023-11-21T03:29:16;7.20;99.90
50556;DHT22;36508;52.512;13.450;2023-11-21T03:31:41;7.20;99.90
50556;DHT22;36508;52.512;13.450;2023-11-21T03:34:14;7.30;99.90
50556;DHT22;36508;52.512;13.450;2023-11-21T03:36:40;7.30;99.90
50556;DHT22;36508;52.512;13.450;2023-11-21T03:39:06;7.20;99.90
50556;DHT22;36508;52.512;13.450;2023-11-21T03:41:31;7.20;99.90
50556;DHT22;36508;52.512;13.450;2023-11-21T03:43:57;7.20;99.90
50556;DHT22;36508;52.512;13.450;2023-11-21T03:46:23;7.20;99.90
50556;DHT22;36508;52.512;13.450;2023-11-21T03:48:48;7.20;99.90
50556;DHT22;36508;52.512;13.450;2023-11-21T03:51:14;7.20;99.90
50556;DHT22;36508;52.512;13.450;2023-11-21T03:53:40;7.10;99.90
50556;DHT22;36508;52.512;13.450;2023-11-21T03:56:06;7.10;99.90
50556;DHT22;36508;52.512;13.450;2023-11-21T03:58:31;7.00;99.90
50556;DHT22;36508;52.512;13.450;2023-11-21T04:00:57;7.00;99.90
50556;DHT22;36508;52.512;13.450;2023-11-21T04:03:23;7.10;99.90
50556;DHT22;36508;52.512;13.450;2023-11-21T04:05:48;6.90;99.90
50556;DHT22;36508;52.512;13.450;2023-11-21T04:08:14;6.80;99.90
50556;DHT22;36508;52.512;13.450;2023-11-21T04:10:39;6.80;99.90
50556;DHT22;36508;52.512;13.450;2023-11-21T04:13:05;6.80;99.90
50556;DHT22;36508;52.512;13.450;2023-11-21T04:15:32;6.70;99.90
50556;DHT22;36508;52.512;13.450;2023-11-21T04:17:58;6.80;99.90
50556;DHT22;36508;52.512;13.450;2023-11-21T04:20:24;6.80;99.90
50556;DHT22;36508;52.512;13.450;2023-11-21T04:22:49;6.80;99.90
50556;DHT22;36508;52.512;13.450;2023-11-21T04:25:15;6.80;99.90
50556;DHT22;36508;52.512;13.450;2023-11-21T04:27:43;6.80;99.90
50556;DHT22;36508;52.512;13.450;2023-11-21T04:30:14;6.70;99.90
50556;DHT22;36508;52.512;13.450;2023-11-21T04:32:40;6.70;99.90
50556;DHT22;36508;52.512;13.450;2023-11-21T04:35:06;6.60;99.90
50556;DHT22;36508;52.512;13.450;2023-11-21T04:37:32;6.60;99.90
50556;DHT22;36508;52.512;13.450;2023-11-21T04:39:57;6.50;99.90
50556;DHT22;36508;52.512;13.450;2023-11-21T04:42:23;6.60;99.90
50556;DHT22;36508;52.512;13.450;2023-11-21T04:44:49;6.70;99.90
50556;DHT22;36508;52.512;13.450;2023-11-21T04:49:49;6.70;99.90
50556;DHT22;36508;52.512;13.450;2023-11-21T04:52:15;6.80;99.90
50556;DHT22;36508;52.512;13.450;2023-11-21T04:54:40;6.70;99.90
50556;DHT22;36508;52.512;13.450;2023-11-21T04:57:06;6.60;99.90
50556;DHT22;36508;52.512;13.450;2023-11-21T04:59:33;6.60;99.90
50556;DHT22;36508;52.512;13.450;2023-11-21T05:01:59;6.50;99.90
50556;DHT22;36508;52.512;13.450;2023-11-21T05:04:26;6.50;99.90
50556;DHT22;36508;52.512;13.450;2023-11-21T05:06:51;6.60;99.90
50556;DHT22;36508;52.512;13.450;2023-11-21T05:09:17;6.60;99.90
50556;DHT22;36508;52.512;13.450;2023-11-21T05:11:43;6.60;99.90
50556;DHT22;36508;52.512;13.450;2023-11-21T05:14:09;6.70;99.90
50556;DHT22;36508;52.512;13.450;2023-11-21T05:16:34;6.70;99.90
50556;DHT22;36508;52.512;13.450;2023-11-21T05:19:01;6.60;99.90
50556;DHT22;36508;52.512;13.450;2023-11-21T05:21:27;6.60;99.90
50556;DHT22;36508;52.512;13.450;2023-11-21T05:23:53;6.80;99.90
50556;DHT22;36508;52.512;13.450;2023-11-21T05:26:19;6.70;99.90
50556;DHT22;36508;52.512;13.450;2023-11-21T05:28:44;6.50;99.90
50556;DHT22;36508;52.512;13.450;2023-11-21T05:31:10;6.50;99.90
50556;DHT22;36508;52.512;13.450;2023-11-21T05:33:36;6.40;99.90
50556;DHT22;36508;52.512;13.450;2023-11-21T05:36:02;6.40;99.90
50556;DHT22;36508;52.512;13.450;2023-11-21T05:38:28;6.40;99.90
50556;DHT22;36508;52.512;13.450;2023-11-21T05:40:53;6.40;99.90
50556;DHT22;36508;52.512;13.450;2023-11-21T05:43:19;6.50;99.90
50556;DHT22;36508;52.512;13.450;2023-11-21T05:45:45;6.60;99.90
50556;DHT22;36508;52.512;13.450;2023-11-21T05:48:11;6.60;99.90
50556;DHT22;36508;52.512;13.450;2023-11-21T05:50:36;6.70;99.90
50556;DHT22;36508;52.512;13.450;2023-11-21T05:53:03;6.60;99.90
50556;DHT22;36508;52.512;13.450;2023-11-21T05:55:29;6.70;99.90
50556;DHT22;36508;52.512;13.450;2023-11-21T06:02:58;6.50;99.90
50556;DHT22;36508;52.512;13.450;2023-11-21T06:05:24;6.70;99.90
50556;DHT22;36508;52.512;13.450;2023-11-21T06:07:51;6.60;99.90
50556;DHT22;36508;52.512;13.450;2023-11-21T06:10:22;6.50;99.90
50556;DHT22;36508;52.512;13.450;2023-11-21T06:12:49;6.50;99.90
50556;DHT22;36508;52.512;13.450;2023-11-21T06:15:15;6.40;99.90
50556;DHT22;36508;52.512;13.450;2023-11-21T06:17:42;6.40;99.90
50556;DHT22;36508;52.512;13.450;2023-11-21T06:20:15;6.50;99.90
50556;DHT22;36508;52.512;13.450;2023-11-21T06:22:45;6.40;99.90
50556;DHT22;36508;52.512;13.450;2023-11-21T06:25:12;6.30;99.90
50556;DHT22;36508;52.512;13.450;2023-11-21T06:27:48;6.40;99.90
50556;DHT22;36508;52.512;13.450;2023-11-21T06:30:14;6.40;99.90
50556;DHT22;36508;52.512;13.450;2023-11-21T06:32:41;6.30;99.90
50556;DHT22;36508;52.512;13.450;2023-11-21T06:35:08;6.20;99.90
50556;DHT22;36508;52.512;13.450;2023-11-21T06:37:35;6.30;99.90
50556;DHT22;36508;52.512;13.450;2023-11-21T06:40:01;6.30;99.90
50556;DHT22;36508;52.512;13.450;2023-11-21T06:42:29;6.30;99.90
50556;DHT22;36508;52.512;13.450;2023-11-21T06:44:55;6.30;99.90
50556;DHT22;36508;52.512;13.450;2023-11-21T06:47:23;6.30;99.90
50556;DHT22;36508;52.512;13.450;2023-11-21T06:49:51;6.30;99.90
50556;DHT22;36508;52.512;13.450;2023-11-21T06:52:17;6.40;99.90
50556;DHT22;36508;52.512;13.450;2023-11-21T06:54:47;6.40;99.90
50556;DHT22;36508;52.512;13.450;2023-11-21T06:57:15;6.30;99.90
50556;DHT22;36508;52.512;13.450;2023-11-21T06:59:41;6.30;99.90
50556;DHT22;36508;52.512;13.450;2023-11-21T07:02:07;6.30;99.90
50556;DHT22;36508;52.512;13.450;2023-11-21T07:04:33;6.30;99.90
50556;DHT22;36508;52.512;13.450;2023-11-21T07:06:59;6.40;99.90
50556;DHT22;36508;52.512;13.450;2023-11-21T07:09:25;6.40;99.90
50556;DHT22;36508;52.512;13.450;2023-11-21T07:11:52;6.40;99.90
50556;DHT22;36508;52.512;13.450;2023-11-21T07:14:18;6.40;99.90
50556;DHT22;36508;52.512;13.450;2023-11-21T07:16:45;6.50;99.90
50556;DHT22;36508;52.512;13.450;2023-11-21T07:19:11;6.30;99.90
50556;DHT22;36508;52.512;13.450;2023-11-21T07:21:41;6.30;99.90
50556;DHT22;36508;52.512;13.450;2023-11-21T07:24:21;6.20;99.90
50556;DHT22;36508;52.512;13.450;2023-11-21T07:26:48;6.30;99.90
50556;DHT22;36508;52.512;13.450;2023-11-21T07:29:14;6.30;99.90
50556;DHT22;36508;52.512;13.450;2023-11-21T07:31:40;6.30;99.90
50556;DHT22;36508;52.512;13.450;2023-11-21T07:34:06;6.30;99.90
50556;DHT22;36508;52.512;13.450;2023-11-21T07:36:39;6.20;99.90
50556;DHT22;36508;52.512;13.450;2023-11-21T07:39:05;6.30;99.90
50556;DHT22;36508;52.512;13.450;2023-11-21T07:41:32;6.20;99.90
50556;DHT22;36508;52.512;13.450;2023-11-21T07:43:57;6.20;99.90
50556;DHT22;36508;52.512;13.450;2023-11-21T07:46:26;6.30;99.90
50556;DHT22;36508;52.512;13.450;2023-11-21T07:48:52;6.40;99.90
50556;DHT22;36508;52.512;13.450;2023-11-21T07:51:19;6.30;99.90
50556;DHT22;36508;52.512;13.450;2023-11-21T07:53:44;6.40;99.90
50556;DHT22;36508;52.512;13.450;2023-11-21T07:56:10;6.30;99.90
50556;DHT22;36508;52.512;13.450;2023-11-21T07:58:37;6.40;99.90
50556;DHT22;36508;52.512;13.450;2023-11-21T08:01:03;6.40;99.90
50556;DHT22;36508;52.512;13.450;2023-11-21T08:03:29;6.40;99.90
50556;DHT22;36508;52.512;13.450;2023-11-21T08:05:56;6.40;99.90
50556;DHT22;36508;52.512;13.450;2023-11-21T08:08:23;6.30;99.90
50556;DHT22;36508;52.512;13.450;2023-11-21T08:10:50;6.30;99.90
50556;DHT22;36508;52.512;13.450;2023-11-21T08:13:31;6.30;99.90
50556;DHT22;36508;52.512;13.450;2023-11-21T08:15:58;6.40;99.90
50556;DHT22;36508;52.512;13.450;2023-11-21T08:18:29;6.40;99.90
50556;DHT22;36508;52.512;13.450;2023-11-21T08:20:58;6.40;99.90
50556;DHT22;36508;52.512;13.450;2023-11-21T08:23:24;6.40;99.90
50556;DHT22;36508;52.512;13.450;2023-11-21T08:25:53;6.30;99.90
50556;DHT22;36508;52.512;13.450;2023-11-21T08:28:19;6.40;99.90
50556;DHT22;36508;52.512;13.450;2023-11-21T08:30:52;6.50;99.90
50556;DHT22;36508;52.512;13.450;2023-11-21T08:33:18;6.30;99.90
50556;DHT22;36508;52.512;13.450;2023-11-21T08:35:44;6.30;99.90
50556;DHT22;36508;52.512;13.450;2023-11-21T08:38:12;6.30;99.90
50556;DHT22;36508;52.512;13.450;2023-11-21T08:40:38;6.30;99.90
50556;DHT22;36508;52.512;13.450;2023-11-21T08:43:03;6.30;99.90
50556;DHT22;36508;52.512;13.450;2023-11-21T08:45:33;6.40;99.90
50556;DHT22;36508;52.512;13.450;2023-11-21T08:48:02;6.50;99.90
50556;DHT22;36508;52.512;13.450;2023-11-21T08:50:28;6.30;99.90
50556;DHT22;36508;52.512;13.450;2023-11-21T08:52:54;6.40;99.90
50556;DHT22;36508;52.512;13.450;2023-11-21T08:55:21;6.30;99.90
50556;DHT22;36508;52.512;13.450;2023-11-21T08:57:46;6.30;99.90
50556;DHT22;36508;52.512;13.450;2023-11-21T09:00:12;6.40;99.90
50556;DHT22;36508;52.512;13.450;2023-11-21T09:02:43;6.20;99.90
50556;DHT22;36508;52.512;13.450;2023-11-21T09:05:13;6.30;99.90
50556;DHT22;36508;52.512;13.450;2023-11-21T09:07:41;6.40;99.90
50556;DHT22;36508;52.512;13.450;2023-11-21T09:10:12;6.40;99.90
50556;DHT22;36508;52.512;13.450;2023-11-21T09:12:41;6.40;99.90
50556;DHT22;36508;52.512;13.450;2023-11-21T09:15:09;6.40;99.90
50556;DHT22;36508;52.512;13.450;2023-11-21T09:17:38;6.30;99.90
50556;DHT22;36508;52.512;13.450;2023-11-21T09:20:06;6.40;99.90
50556;DHT22;36508;52.512;13.450;2023-11-21T09:22:35;6.40;99.90
50556;DHT22;36508;52.512;13.450;2023-11-21T09:25:02;6.40;99.90
50556;DHT22;36508;52.512;13.450;2023-11-21T09:27:31;6.30;99.90
50556;DHT22;36508;52.512;13.450;2023-11-21T09:29:57;6.30;99.90
50556;DHT22;36508;52.512;13.450;2023-11-21T09:32:23;6.30;99.90
50556;DHT22;36508;52.512;13.450;2023-11-21T09:34:50;6.30;99.90
50556;DHT22;36508;52.512;13.450;2023-11-21T09:37:16;6.20;99.90
50556;DHT22;36508;52.512;13.450;2023-11-21T09:39:42;6.20;99.90
50556;DHT22;36508;52.512;13.450;2023-11-21T09:42:15;6.20;99.90
50556;DHT22;36508;52.512;13.450;2023-11-21T09:44:51;6.40;99.90
50556;DHT22;36508;52.512;13.450;2023-11-21T09:47:21;6.30;99.90
50556;DHT22;36508;52.512;13.450;2023-11-21T09:49:48;6.40;99.90
50556;DHT22;36508;52.512;13.450;2023-11-21T09:52:26;6.50;99.90
50556;DHT22;36508;52.512;13.450;2023-11-21T09:54:53;6.50;99.90
50556;DHT22;36508;52.512;13.450;2023-11-21T09:57:20;6.40;99.90
50556;DHT22;36508;52.512;13.450;2023-11-21T09:59:53;6.60;99.90
50556;DHT22;36508;52.512;13.450;2023-11-21T10:02:28;6.50;99.90
50556;DHT22;36508;52.512;13.450;2023-11-21T10:04:56;6.50;99.90
50556;DHT22;36508;52.512;13.450;2023-11-21T10:07:22;6.40;99.90
50556;DHT22;36508;52.512;13.450;2023-11-21T10:09:48;6.50;99.90
50556;DHT22;36508;52.512;13.450;2023-11-21T10:12:22;6.60;99.90
50556;DHT22;36508;52.512;13.450;2023-11-21T10:14:51;6.60;99.90
50556;DHT22;36508;52.512;13.450;2023-11-21T10:17:19;6.70;99.90
50556;DHT22;36508;52.512;13.450;2023-11-21T10:19:48;6.70;99.90
50556;DHT22;36508;52.512;13.450;2023-11-21T10:22:17;6.60;99.90
50556;DHT22;36508;52.512;13.450;2023-11-21T10:24:45;6.50;99.90
50556;DHT22;36508;52.512;13.450;2023-11-21T10:27:11;6.30;99.90
50556;DHT22;36508;52.512;13.450;2023-11-21T10:29:36;6.40;99.90
50556;DHT22;36508;52.512;13.450;2023-11-21T10:32:03;6.50;99.90
50556;DHT22;36508;52.512;13.450;2023-11-21T10:34:29;6.40;99.90
50556;DHT22;36508;52.512;13.450;2023-11-21T10:36:55;6.30;99.90
50556;DHT22;36508;52.512;13.450;2023-11-21T10:39:26;6.40;99.90
50556;DHT22;36508;52.512;13.450;2023-11-21T10:41:56;6.30;99.90
50556;DHT22;36508;52.512;13.450;2023-11-21T10:44:22;6.30;99.90
50556;DHT22;36508;52.512;13.450;2023-11-21T10:46:53;6.30;99.90
50556;DHT22;36508;52.512;13.450;2023-11-21T10:49:28;6.30;99.90
50556;DHT22;36508;52.512;13.450;2023-11-21T10:51:54;6.30;99.90
50556;DHT22;36508;52.512;13.450;2023-11-21T10:54:22;6.20;99.90
50556;DHT22;36508;52.512;13.450;2023-11-21T10:56:50;6.20;99.90
50556;DHT22;36508;52.512;13.450;2023-11-21T10:59:20;6.10;99.90
50556;DHT22;36508;52.512;13.450;2023-11-21T11:01:50;6.00;99.90
50556;DHT22;36508;52.512;13.450;2023-11-21T11:04:22;6.10;99.90
50556;DHT22;36508;52.512;13.450;2023-11-21T11:06:58;6.20;99.90
50556;DHT22;36508;52.512;13.450;2023-11-21T11:09:27;6.20;99.90
50556;DHT22;36508;52.512;13.450;2023-11-21T11:11:54;6.20;99.90
50556;DHT22;36508;52.512;13.450;2023-11-21T11:14:20;6.10;99.90
50556;DHT22;36508;52.512;13.450;2023-11-21T11:16:52;6.00;99.90
50556;DHT22;36508;52.512;13.450;2023-11-21T11:19:19;6.10;99.90
50556;DHT22;36508;52.512;13.450;2023-11-21T11:30:20;6.10;99.90
50556;DHT22;36508;52.512;13.450;2023-11-21T11:36:00;6.00;99.90
50556;DHT22;36508;52.512;13.450;2023-11-21T11:38:32;6.00;99.90
50556;DHT22;36508;52.512;13.450;2023-11-21T11:41:06;5.90;99.90
50556;DHT22;36508;52.512;13.450;2023-11-21T11:43:35;5.90;99.90
50556;DHT22;36508;52.512;13.450;2023-11-21T11:46:43;5.90;99.90
50556;DHT22;36508;52.512;13.450;2023-11-21T11:49:24;6.00;99.90
50556;DHT22;36508;52.512;13.450;2023-11-21T11:54:55;6.10;99.90
50556;DHT22;36508;52.512;13.450;2023-11-21T11:57:24;6.00;99.90
50556;DHT22;36508;52.512;13.450;2023-11-21T12:00:09;5.90;99.90
50556;DHT22;36508;52.512;13.450;2023-11-21T12:02:36;6.10;99.90
50556;DHT22;36508;52.512;13.450;2023-11-21T12:05:09;6.00;99.90
50556;DHT22;36508;52.512;13.450;2023-11-21T12:07:53;6.10;99.90
50556;DHT22;36508;52.512;13.450;2023-11-21T12:10:29;6.00;99.90
50556;DHT22;36508;52.512;13.450;2023-11-21T12:12:59;5.80;99.90
50556;DHT22;36508;52.512;13.450;2023-11-21T12:15:27;5.80;99.90
50556;DHT22;36508;52.512;13.450;2023-11-21T12:17:57;5.80;99.90
50556;DHT22;36508;52.512;13.450;2023-11-21T12:20:28;5.80;99.90
50556;DHT22;36508;52.512;13.450;2023-11-21T12:22:58;5.70;99.90
50556;DHT22;36508;52.512;13.450;2023-11-21T12:25:29;5.60;99.90
50556;DHT22;36508;52.512;13.450;2023-11-21T12:27:58;5.60;99.90
50556;DHT22;36508;52.512;13.450;2023-11-21T12:30:27;5.70;99.90
50556;DHT22;36508;52.512;13.450;2023-11-21T12:33:01;5.60;99.90
50556;DHT22;36508;52.512;13.450;2023-11-21T12:35:33;5.60;99.90
50556;DHT22;36508;52.512;13.450;2023-11-21T12:38:03;5.60;99.90
50556;DHT22;36508;52.512;13.450;2023-11-21T12:40:30;5.70;99.90
50556;DHT22;36508;52.512;13.450;2023-11-21T12:42:57;5.80;99.90
50556;DHT22;36508;52.512;13.450;2023-11-21T12:45:25;5.80;99.90
50556;DHT22;36508;52.512;13.450;2023-11-21T12:47:55;6.00;99.90
50556;DHT22;36508;52.512;13.450;2023-11-21T12:50:24;6.00;99.90
50556;DHT22;36508;52.512;13.450;2023-11-21T12:52:57;6.10;99.90
50556;DHT22;36508;52.512;13.450;2023-11-21T12:55:23;6.10;99.90
50556;DHT22;36508;52.512;13.450;2023-11-21T12:57:51;6.20;99.90
50556;DHT22;36508;52.512;13.450;2023-11-21T13:00:18;6.10;99.90
50556;DHT22;36508;52.512;13.450;2023-11-21T13:02:57;6.10;99.90
50556;DHT22;36508;52.512;13.450;2023-11-21T13:05:34;5.90;99.90
50556;DHT22;36508;52.512;13.450;2023-11-21T13:08:02;5.90;99.90
50556;DHT22;36508;52.512;13.450;2023-11-21T13:10:30;5.80;99.90
50556;DHT22;36508;52.512;13.450;2023-11-21T13:12:58;5.80;99.90
50556;DHT22;36508;52.512;13.450;2023-11-21T13:15:27;5.90;99.90
50556;DHT22;36508;52.512;13.450;2023-11-21T13:17:54;5.80;99.90
50556;DHT22;36508;52.512;13.450;2023-11-21T13:20:21;5.70;99.90
50556;DHT22;36508;52.512;13.450;2023-11-21T13:22:48;5.60;99.90
50556;DHT22;36508;52.512;13.450;2023-11-21T13:25:15;5.60;99.90
50556;DHT22;36508;52.512;13.450;2023-11-21T13:27:44;5.50;99.90
50556;DHT22;36508;52.512;13.450;2023-11-21T13:30:14;5.50;99.90
50556;DHT22;36508;52.512;13.450;2023-11-21T13:32:46;5.30;99.90
50556;DHT22;36508;52.512;13.450;2023-11-21T13:35:13;5.50;99.90
50556;DHT22;36508;52.512;13.450;2023-11-21T13:38:06;5.60;99.90
50556;DHT22;36508;52.512;13.450;2023-11-21T13:40:33;5.30;99.90
50556;DHT22;36508;52.512;13.450;2023-11-21T13:43:16;5.20;99.90
50556;DHT22;36508;52.512;13.450;2023-11-21T13:45:44;5.10;99.90
50556;DHT22;36508;52.512;13.450;2023-11-21T13:48:12;5.10;99.90
50556;DHT22;36508;52.512;13.450;2023-11-21T13:50:58;5.20;99.90
50556;DHT22;36508;52.512;13.450;2023-11-21T13:53:27;5.20;99.90
50556;DHT22;36508;52.512;13.450;2023-11-21T13:55:54;5.30;99.90
50556;DHT22;36508;52.512;13.450;2023-11-21T13:58:23;5.20;99.90
50556;DHT22;36508;52.512;13.450;2023-11-21T14:00:54;5.20;99.90
50556;DHT22;36508;52.512;13.450;2023-11-21T14:03:27;5.20;99.90
50556;DHT22;36508;52.512;13.450;2023-11-21T14:06:05;5.20;99.90
50556;DHT22;36508;52.512;13.450;2023-11-21T14:08:40;5.20;99.90
50556;DHT22;36508;52.512;13.450;2023-11-21T14:11:07;5.10;99.90
50556;DHT22;36508;52.512;13.450;2023-11-21T14:13:33;4.90;99.90
50556;DHT22;36508;52.512;13.450;2023-11-21T14:15:59;4.90;99.90
50556;DHT22;36508;52.512;13.450;2023-11-21T14:18:29;4.80;99.90
50556;DHT22;36508;52.512;13.450;2023-11-21T14:21:15;4.80;99.90
50556;DHT22;36508;52.512;13.450;2023-11-21T14:23:41;4.80;99.90
50556;DHT22;36508;52.512;13.450;2023-11-21T14:26:07;4.80;99.90
50556;DHT22;36508;52.512;13.450;2023-11-21T14:28:32;4.80;99.90
50556;DHT22;36508;52.512;13.450;2023-11-21T14:31:01;4.80;99.90
50556;DHT22;36508;52.512;13.450;2023-11-21T14:33:27;4.70;99.90
50556;DHT22;36508;52.512;13.450;2023-11-21T14:35:53;4.70;99.90
50556;DHT22;36508;52.512;13.450;2023-11-21T14:38:19;4.50;99.90
50556;DHT22;36508;52.512;13.450;2023-11-21T14:40:45;4.50;99.90
50556;DHT22;36508;52.512;13.450;2023-11-21T14:43:12;4.60;99.90
50556;DHT22;36508;52.512;13.450;2023-11-21T14:45:39;4.60;99.90
50556;DHT22;36508;52.512;13.450;2023-11-21T14:48:07;4.60;99.90
50556;DHT22;36508;52.512;13.450;2023-11-21T14:50:56;4.50;99.90
50556;DHT22;36508;52.512;13.450;2023-11-21T14:53:28;4.50;99.90
50556;DHT22;36508;52.512;13.450;2023-11-21T14:56:17;4.40;99.90
50556;DHT22;36508;52.512;13.450;2023-11-21T14:58:54;4.30;99.90
50556;DHT22;36508;52.512;13.450;2023-11-21T15:01:23;4.30;99.90
50556;DHT22;36508;52.512;13.450;2023-11-21T15:04:14;4.30;99.90
50556;DHT22;36508;52.512;13.450;2023-11-21T15:06:49;4.40;99.90
50556;DHT22;36508;52.512;13.450;2023-11-21T15:09:18;4.40;99.90
50556;DHT22;36508;52.512;13.450;2023-11-21T15:11:43;4.40;99.90
50556;DHT22;36508;52.512;13.450;2023-11-21T15:14:09;4.30;99.90
50556;DHT22;36508;52.512;13.450;2023-11-21T15:16:38;4.50;99.90
50556;DHT22;36508;52.512;13.450;2023-11-21T15:19:08;4.50;99.90
50556;DHT22;36508;52.512;13.450;2023-11-21T15:21:36;4.50;99.90
50556;DHT22;36508;52.512;13.450;2023-11-21T15:24:02;4.40;99.90
50556;DHT22;36508;52.512;13.450;2023-11-21T15:26:28;4.40;99.90
50556;DHT22;36508;52.512;13.450;2023-11-21T15:28:55;4.30;99.90
50556;DHT22;36508;52.512;13.450;2023-11-21T15:31:22;4.20;99.90
50556;DHT22;36508;52.512;13.450;2023-11-21T15:33:53;4.30;99.90
50556;DHT22;36508;52.512;13.450;2023-11-21T15:36:41;4.20;99.90
50556;DHT22;36508;52.512;13.450;2023-11-21T15:39:07;4.20;99.90
50556;DHT22;36508;52.512;13.450;2023-11-21T15:41:37;4.00;99.90
50556;DHT22;36508;52.512;13.450;2023-11-21T15:44:07;4.00;99.90
50556;DHT22;36508;52.512;13.450;2023-11-21T15:46:36;4.10;99.90
50556;DHT22;36508;52.512;13.450;2023-11-21T15:49:03;4.20;99.90
50556;DHT22;36508;52.512;13.450;2023-11-21T15:51:42;4.30;99.90
50556;DHT22;36508;52.512;13.450;2023-11-21T15:54:09;4.40;99.90
50556;DHT22;36508;52.512;13.450;2023-11-21T15:56:38;4.50;99.90
50556;DHT22;36508;52.512;13.450;2023-11-21T15:59:04;4.50;99.90
50556;DHT22;36508;52.512;13.450;2023-11-21T16:01:33;4.40;99.90